createdAt,value
2018-09-02T00:01:14.960Z,6.70
2018-09-02T00:03:44.500Z,8.83
2018-09-02T00:06:14.941Z,6.80
2018-09-02T00:08:48.133Z,8.37
2018-09-02T00:11:17.614Z,8.17
2018-09-02T00:14:14.657Z,7.97
2018-09-02T00:19:02.748Z,8.43
2018-09-02T00:38:59.241Z,8.33
2018-09-02T00:41:32.144Z,7.80
2018-09-02T00:44:02.600Z,7.43
2018-09-02T00:46:38.434Z,7.47
2018-09-02T00:49:13.378Z,7.57
2018-09-02T00:51:59.780Z,7.33
2018-09-02T00:54:30.520Z,7.07
2018-09-02T00:57:03.789Z,8.50
2018-09-02T00:59:36.193Z,7.50
2018-09-02T01:02:08.641Z,8.20
2018-09-02T01:04:38.417Z,8.03
2018-09-02T01:07:09.956Z,7.33
2018-09-02T01:09:50.093Z,8.13
2018-09-02T01:12:19.688Z,9.43
2018-09-02T01:14:59.276Z,8.67
2018-09-02T01:17:29.860Z,7.77
2018-09-02T01:20:03.697Z,8.60
2018-09-02T01:22:34.396Z,8.70
2018-09-02T01:25:14.797Z,10.17
2018-09-02T01:27:45.336Z,9.60
2018-09-02T01:30:14.784Z,9.77
2018-09-02T01:32:49.669Z,9.53
2018-09-02T01:35:24.600Z,7.93
2018-09-02T01:37:57.700Z,9.17
2018-09-02T01:40:32.160Z,8.40
2018-09-02T01:43:07.480Z,9.03
2018-09-02T01:45:45.453Z,8.90
2018-09-02T01:51:14.180Z,9.60
2018-09-02T01:53:51.512Z,9.20
2018-09-02T01:56:31.159Z,9.53
2018-09-02T01:59:05.765Z,10.10
2018-09-02T02:01:36.328Z,8.73
2018-09-02T02:04:07.292Z,8.80
2018-09-02T02:06:55.940Z,8.13
2018-09-02T02:09:26.396Z,8.90
2018-09-02T02:12:00.996Z,8.60
2018-09-02T02:14:31.656Z,8.27
2018-09-02T02:17:13.056Z,8.30
2018-09-02T02:19:43.116Z,9.40
2018-09-02T02:22:24.784Z,8.50
2018-09-02T02:24:55.328Z,9.70
2018-09-02T02:27:29.248Z,10.50
2018-09-02T02:30:12.262Z,11.37
2018-09-02T02:32:47.188Z,11.00
2018-09-02T02:35:29.100Z,11.00
2018-09-02T02:38:07.152Z,11.80
2018-09-02T02:40:48.164Z,10.37
2018-09-02T02:43:21.871Z,10.90
2018-09-02T02:45:56.972Z,11.43
2018-09-02T02:48:39.840Z,9.83
2018-09-02T02:51:14.556Z,11.80
2018-09-02T02:53:46.140Z,10.70
2018-09-02T02:56:18.923Z,10.90
2018-09-02T02:58:59.078Z,11.10
2018-09-02T03:01:33.700Z,11.13
2018-09-02T03:04:04.476Z,11.30
2018-09-02T03:06:43.968Z,13.00
2018-09-02T03:09:13.509Z,12.03
2018-09-02T03:11:51.037Z,12.37
2018-09-02T03:14:26.416Z,11.90
2018-09-02T03:16:57.144Z,11.93
2018-09-02T03:19:28.620Z,10.50
2018-09-02T03:21:58.308Z,11.40
2018-09-02T03:27:27.228Z,11.00
2018-09-02T03:30:00.463Z,11.63
2018-09-02T03:32:34.069Z,12.90
2018-09-02T03:35:03.816Z,10.90
2018-09-02T03:37:33.416Z,12.40
2018-09-02T03:40:02.916Z,12.67
2018-09-02T03:45:29.576Z,12.87
2018-09-02T03:48:05.288Z,11.93
2018-09-02T03:50:58.172Z,12.63
2018-09-02T03:56:21.656Z,11.10
2018-09-02T03:58:51.440Z,12.20
2018-09-02T04:01:23.220Z,13.43
2018-09-02T04:03:53.059Z,12.30
2018-09-02T04:06:32.360Z,11.90
2018-09-02T04:09:01.895Z,13.03
2018-09-02T04:11:56.440Z,12.93
2018-09-02T04:14:32.948Z,13.27
2018-09-02T04:17:12.062Z,12.17
2018-09-02T04:19:58.237Z,13.10
2018-09-02T04:22:50.588Z,11.10
2018-09-02T04:25:21.144Z,12.33
2018-09-02T04:28:08.777Z,13.17
2018-09-02T04:30:50.484Z,11.77
2018-09-02T04:33:27.720Z,11.90
2018-09-02T04:35:57.244Z,12.80
2018-09-02T04:38:26.726Z,13.23
2018-09-02T04:41:12.672Z,13.33
2018-09-02T04:43:50.816Z,13.40
2018-09-02T04:46:28.017Z,11.83
2018-09-02T04:49:02.400Z,13.03
2018-09-02T04:51:32.852Z,12.23
2018-09-02T04:54:02.380Z,13.23
2018-09-02T04:56:31.832Z,13.30
2018-09-02T04:59:08.020Z,13.93
2018-09-02T05:01:38.504Z,13.10
2018-09-02T05:04:11.472Z,12.37
2018-09-02T05:09:45.528Z,14.57
2018-09-02T05:12:17.144Z,14.10
2018-09-02T05:15:03.816Z,13.60
2018-09-02T05:17:50.792Z,13.30
2018-09-02T05:20:30.173Z,12.80
2018-09-02T05:25:58.919Z,12.50
2018-09-02T05:28:38.932Z,12.60
2018-09-02T05:31:12.352Z,13.80
2018-09-02T05:36:38.361Z,13.27
2018-09-02T05:39:16.932Z,12.07
2018-09-02T05:41:58.360Z,11.90
2018-09-02T05:44:40.412Z,12.30
2018-09-02T05:47:13.669Z,12.50
2018-09-02T05:49:48.825Z,13.07
2018-09-02T05:52:27.324Z,12.77
2018-09-02T05:55:10.211Z,12.37
2018-09-02T05:57:40.851Z,13.17
2018-09-02T06:00:12.243Z,13.20
2018-09-02T06:02:51.389Z,12.80
2018-09-02T06:05:25.280Z,13.10
2018-09-02T06:07:58.912Z,13.77
2018-09-02T06:10:35.132Z,13.30
2018-09-02T06:13:12.076Z,12.57
2018-09-02T06:15:43.756Z,12.53
2018-09-02T06:18:13.291Z,12.77
2018-09-02T06:21:04.245Z,12.90
2018-09-02T06:23:43.600Z,11.90
2018-09-02T06:26:13.068Z,11.93
2018-09-02T06:28:42.737Z,12.83
2018-09-02T06:31:13.264Z,12.90
2018-09-02T06:33:47.088Z,12.70
2018-09-02T06:36:23.112Z,12.70
2018-09-02T06:38:57.140Z,12.23
2018-09-02T06:41:26.636Z,12.17
2018-09-02T06:44:06.420Z,12.53
2018-09-02T06:46:52.669Z,12.03
2018-09-02T06:49:38.668Z,12.33
2018-09-02T06:52:12.684Z,12.00
2018-09-02T06:54:42.148Z,11.90
2018-09-02T06:57:12.600Z,11.53
2018-09-02T06:59:45.889Z,11.13
2018-09-02T07:05:29.568Z,12.10
2018-09-02T07:08:01.308Z,10.00
2018-09-02T07:10:51.085Z,10.30
2018-09-02T07:13:24.536Z,9.90
2018-09-02T07:15:58.405Z,9.87
2018-09-02T07:18:32.788Z,9.50
2018-09-02T07:21:14.340Z,8.70
2018-09-02T07:23:44.776Z,9.57
2018-09-02T07:26:22.113Z,9.60
2018-09-02T07:29:11.036Z,8.93
2018-09-02T07:31:47.209Z,8.93
2018-09-02T07:37:11.508Z,8.70
2018-09-02T07:39:48.720Z,7.63
2018-09-02T07:42:25.602Z,6.53
2018-09-02T07:44:56.028Z,6.37
2018-09-02T07:47:48.844Z,6.97
2018-09-02T07:50:18.536Z,6.30
2018-09-02T07:52:48.400Z,6.43
2018-09-02T07:55:21.368Z,6.03
2018-09-02T07:57:52.865Z,5.93
2018-09-02T08:00:23.713Z,5.40
2018-09-02T08:02:55.200Z,5.90
2018-09-02T08:05:25.952Z,5.23
2018-09-02T08:07:56.580Z,5.10
2018-09-02T08:10:26.071Z,4.73
2018-09-02T08:13:12.021Z,4.50
2018-09-02T08:15:43.847Z,4.97
2018-09-02T08:18:26.269Z,4.23
2018-09-02T08:21:10.052Z,5.27
2018-09-02T08:23:49.570Z,4.07
2018-09-02T08:26:23.416Z,5.23
2018-09-02T08:28:52.856Z,5.03
2018-09-02T08:31:26.032Z,5.00
2018-09-02T08:34:01.300Z,5.10
2018-09-02T08:36:31.769Z,4.67
2018-09-02T08:39:12.108Z,4.93
2018-09-02T08:41:45.448Z,4.40
2018-09-02T08:44:27.748Z,5.13
2018-09-02T08:46:58.184Z,4.77
2018-09-02T08:49:36.576Z,5.10
2018-09-02T08:52:06.880Z,5.70
2018-09-02T08:54:42.712Z,5.63
2018-09-02T08:57:12.315Z,4.20
2018-09-02T08:59:44.696Z,4.00
2018-09-02T09:02:18.532Z,3.97
2018-09-02T09:05:01.369Z,3.77
2018-09-02T09:07:31.771Z,3.93
2018-09-02T09:10:01.204Z,3.73
2018-09-02T09:15:24.760Z,4.40
2018-09-02T09:18:04.920Z,4.07
2018-09-02T09:23:29.008Z,3.20
2018-09-02T09:25:58.523Z,4.33
2018-09-02T09:28:31.296Z,4.60
2018-09-02T09:31:11.960Z,3.80
2018-09-02T09:33:58.904Z,4.23
2018-09-02T09:36:28.596Z,4.80
2018-09-02T09:38:58.103Z,5.63
2018-09-02T09:41:28.636Z,5.07
2018-09-02T09:44:01.722Z,4.33
2018-09-02T09:46:31.284Z,4.90
2018-09-02T09:49:11.864Z,5.30
2018-09-02T09:51:45.148Z,5.53
2018-09-02T09:54:19.596Z,5.40
2018-09-02T09:56:52.582Z,5.63
2018-09-02T09:59:22.332Z,5.40
2018-09-02T10:01:55.028Z,5.63
2018-09-02T10:04:34.480Z,5.90
2018-09-02T10:07:03.928Z,5.77
2018-09-02T10:09:37.130Z,6.30
2018-09-02T10:12:10.663Z,5.87
2018-09-02T10:17:39.753Z,5.30
2018-09-02T10:20:11.260Z,5.57
2018-09-02T10:23:09.956Z,5.43
2018-09-02T10:25:51.192Z,5.63
2018-09-02T10:28:24.039Z,5.60
2018-09-02T10:31:09.496Z,5.37
2018-09-02T10:33:44.671Z,5.10
2018-09-02T10:36:14.124Z,5.83
2018-09-02T10:38:48.456Z,5.50
2018-09-02T10:44:12.108Z,6.17
2018-09-02T10:46:51.256Z,5.57
2018-09-02T10:49:44.747Z,5.20
2018-09-02T10:52:15.242Z,5.70
2018-09-02T10:54:46.932Z,5.90
2018-09-02T11:00:11.244Z,6.63
2018-09-02T11:02:46.568Z,6.67
2018-09-02T11:05:20.175Z,7.07
2018-09-02T11:07:56.556Z,6.47
2018-09-02T11:10:38.688Z,7.73
2018-09-02T11:13:11.814Z,6.77
2018-09-02T11:15:48.655Z,7.23
2018-09-02T11:18:19.003Z,7.50
2018-09-02T11:20:48.439Z,8.20
2018-09-02T11:23:18.104Z,6.73
2018-09-02T11:26:08.095Z,7.23
2018-09-02T11:28:42.644Z,7.17
2018-09-02T11:31:13.183Z,6.40
2018-09-02T11:33:44.624Z,6.97
2018-09-02T11:36:15.076Z,5.80
2018-09-02T11:38:51.599Z,6.00
2018-09-02T11:41:22.155Z,6.30
2018-09-02T11:43:51.787Z,6.13
2018-09-02T11:46:24.555Z,5.70
2018-09-02T11:48:55.512Z,5.70
2018-09-02T11:51:25.252Z,5.43
2018-09-02T11:53:58.468Z,5.33
2018-09-02T11:56:28.156Z,6.67
2018-09-02T11:59:07.472Z,5.43
2018-09-02T12:01:38.428Z,5.57
2018-09-02T12:04:08.051Z,5.03
2018-09-02T12:06:42.776Z,6.53
2018-09-02T12:09:37.763Z,5.97
2018-09-02T12:12:09.255Z,6.00
2018-09-02T12:14:41.738Z,5.47
2018-09-02T12:17:11.191Z,5.43
2018-09-02T12:19:46.107Z,5.13
2018-09-02T12:25:10.238Z,4.83
2018-09-02T12:27:40.019Z,5.53
2018-09-02T12:30:10.551Z,5.10
2018-09-02T12:32:48.375Z,5.50
2018-09-02T12:35:21.975Z,5.13
2018-09-02T12:38:03.543Z,5.27
2018-09-02T12:40:56.108Z,5.40
2018-09-02T12:43:30.903Z,5.83
2018-09-02T12:46:19.069Z,6.30
2018-09-02T12:48:48.511Z,5.40
2018-09-02T12:51:22.599Z,6.40
2018-09-02T12:53:57.731Z,6.00
2018-09-02T12:56:28.187Z,6.20
2018-09-02T12:59:04.675Z,6.20
2018-09-02T13:01:41.883Z,5.90
2018-09-02T13:04:12.367Z,5.00
2018-09-02T13:06:41.835Z,6.23
2018-09-02T13:09:14.334Z,6.90
2018-09-02T13:11:55.241Z,7.53
2018-09-02T13:14:34.723Z,7.10
2018-09-02T13:17:10.128Z,6.80
2018-09-02T13:19:49.787Z,6.53
2018-09-02T13:22:19.331Z,8.67
2018-09-02T13:24:55.526Z,7.30
2018-09-02T13:27:26.039Z,7.80
2018-09-02T13:30:01.015Z,7.93
2018-09-02T13:32:34.439Z,7.80
2018-09-02T13:35:13.875Z,8.00
2018-09-02T13:38:07.531Z,7.73
2018-09-02T13:41:07.336Z,8.17
2018-09-02T13:43:41.955Z,7.83
2018-09-02T13:46:18.575Z,5.70
2018-09-02T13:49:04.106Z,7.20
2018-09-02T13:51:37.595Z,6.90
2018-09-02T13:54:06.935Z,7.20
2018-09-02T13:56:54.399Z,7.27
2018-09-02T13:59:24.211Z,5.97
2018-09-02T14:01:57.109Z,6.30
2018-09-02T14:04:38.520Z,6.97
2018-09-02T14:07:26.338Z,7.00
2018-09-02T14:10:00.619Z,7.47
2018-09-02T14:12:30.196Z,7.70
2018-09-02T14:15:03.312Z,8.20
2018-09-02T14:17:39.666Z,8.80
2018-09-02T14:20:09.155Z,8.77
2018-09-02T14:22:39.888Z,8.67
2018-09-02T14:25:09.444Z,9.40
2018-09-02T14:27:39.136Z,9.23
2018-09-02T14:30:09.917Z,9.43
2018-09-02T14:32:40.459Z,9.90
2018-09-02T14:35:09.906Z,9.27
2018-09-02T14:37:40.592Z,9.67
2018-09-02T14:40:11.136Z,9.30
2018-09-02T14:43:06.904Z,9.80
2018-09-02T14:45:37.728Z,9.67
2018-09-02T14:48:09.279Z,10.07
2018-09-02T14:50:51.198Z,9.53
2018-09-02T14:53:24.874Z,10.23
2018-09-02T14:56:13.972Z,10.23
2018-09-02T14:58:49.188Z,9.50
2018-09-02T15:01:25.703Z,10.80
2018-09-02T15:04:04.775Z,10.00
2018-09-02T15:06:46.095Z,10.97
2018-09-02T15:09:20.939Z,11.63
2018-09-02T15:11:54.143Z,11.00
2018-09-02T15:14:24.603Z,10.63
2018-09-02T15:16:56.122Z,10.83
2018-09-02T15:19:44.939Z,12.07
2018-09-02T15:22:27.244Z,11.83
2018-09-02T15:25:00.255Z,12.90
2018-09-02T15:27:41.891Z,12.40
2018-09-02T15:30:18.115Z,12.27
2018-09-02T15:33:06.357Z,11.83
2018-09-02T15:35:36.831Z,12.47
2018-09-02T15:38:07.335Z,13.00
2018-09-02T15:40:37.007Z,13.00
2018-09-02T15:43:06.823Z,13.30
2018-09-02T15:45:38.400Z,13.80
2018-09-02T15:48:09.167Z,12.70
2018-09-02T15:50:44.187Z,12.80
2018-09-02T15:53:14.779Z,13.17
2018-09-02T15:55:45.443Z,11.67
2018-09-02T15:58:27.367Z,12.73
2018-09-02T16:00:56.995Z,12.90
2018-09-02T16:03:29.771Z,12.60
2018-09-02T16:06:01.299Z,13.53
2018-09-02T16:08:35.879Z,13.60
2018-09-02T16:11:08.891Z,13.47
2018-09-02T16:13:42.075Z,14.70
2018-09-02T16:16:12.567Z,14.47
2018-09-02T16:19:07.048Z,15.40
2018-09-02T16:21:59.923Z,17.90
2018-09-02T16:24:30.439Z,15.87
2018-09-02T16:27:07.735Z,18.33
2018-09-02T16:29:40.138Z,18.70
2018-09-02T16:32:09.798Z,19.83
2018-09-02T16:34:40.871Z,20.17
2018-09-02T16:37:11.344Z,16.70
2018-09-02T16:39:41.747Z,18.20
2018-09-02T16:42:12.155Z,17.03
2018-09-02T16:44:41.803Z,15.50
2018-09-02T16:47:15.551Z,17.13
2018-09-02T16:52:27.644Z,17.57
2018-09-02T16:55:07.859Z,17.30
2018-09-02T16:57:38.456Z,18.57
2018-09-02T17:00:10.215Z,19.30
2018-09-02T17:05:34.539Z,18.37
2018-09-02T17:08:08.427Z,18.60
2018-09-02T17:10:50.571Z,17.37
2018-09-02T17:13:21.719Z,17.17
2018-09-02T17:15:57.924Z,18.90
2018-09-02T17:18:27.691Z,18.50
2018-09-02T17:20:57.775Z,16.03
2018-09-02T17:23:57.609Z,16.90
2018-09-02T17:26:50.777Z,16.93
2018-09-02T17:29:26.626Z,15.13
2018-09-02T17:31:57.027Z,18.23
2018-09-02T17:34:36.138Z,16.10
2018-09-02T17:37:17.003Z,17.07
2018-09-02T17:39:51.315Z,18.87
2018-09-02T17:42:31.651Z,18.10
2018-09-02T17:45:03.255Z,17.87
2018-09-02T17:47:50.543Z,17.33
2018-09-02T17:50:20.298Z,17.33
2018-09-02T17:52:51.971Z,17.30
2018-09-02T17:55:21.859Z,17.10
2018-09-02T17:57:59.295Z,17.43
2018-09-02T18:00:35.285Z,16.83
2018-09-02T18:03:06.851Z,15.97
2018-09-02T18:05:52.874Z,14.53
2018-09-02T18:08:22.470Z,16.13
2018-09-02T18:10:54.023Z,14.47
2018-09-02T18:13:24.494Z,15.83
2018-09-02T18:16:06.823Z,14.20
2018-09-02T18:19:05.979Z,15.33
2018-09-02T18:21:37.015Z,13.97
2018-09-02T18:24:06.698Z,14.23
2018-09-02T18:26:36.282Z,14.80
2018-09-02T18:29:07.738Z,15.87
2018-09-02T18:31:45.231Z,15.10
2018-09-02T18:34:15.826Z,15.83
2018-09-02T18:36:50.287Z,14.23
2018-09-02T18:39:23.955Z,14.77
2018-09-02T18:41:53.410Z,16.00
2018-09-02T18:44:28.683Z,14.80
2018-09-02T18:46:58.387Z,15.00
2018-09-02T18:49:33.574Z,14.20
2018-09-02T18:52:04.135Z,15.30
2018-09-02T18:54:34.638Z,13.80
2018-09-02T18:57:05.535Z,14.30
2018-09-02T18:59:46.318Z,16.53
2018-09-02T19:02:16.107Z,15.80
2018-09-02T19:04:45.701Z,15.50
2018-09-02T19:07:16.498Z,15.57
2018-09-02T19:09:50.462Z,13.63
2018-09-02T19:12:20.147Z,14.07
2018-09-02T19:14:55.663Z,14.00
2018-09-02T19:17:30.011Z,14.53
2018-09-02T19:19:59.806Z,15.40
2018-09-02T19:22:29.638Z,16.70
2018-09-02T19:24:59.322Z,17.13
2018-09-02T19:27:40.623Z,15.80
2018-09-02T19:30:13.494Z,15.80
2018-09-02T19:32:50.870Z,16.20
2018-09-02T19:35:24.119Z,18.60
2018-09-02T19:37:54.858Z,17.90
2018-09-02T19:40:32.306Z,17.50
2018-09-02T19:43:01.763Z,17.37
2018-09-02T19:45:31.302Z,16.30
2018-09-02T19:48:04.095Z,17.40
2018-09-02T19:50:35.743Z,17.50
2018-09-02T19:53:07.514Z,18.97
2018-09-02T19:55:38.362Z,17.77
2018-09-02T19:58:07.950Z,16.87
2018-09-02T20:00:37.520Z,17.63
2018-09-02T20:03:08.042Z,18.47
2018-09-02T20:05:47.070Z,19.00
2018-09-02T20:08:22.352Z,19.10
2018-09-02T20:10:53.798Z,18.97
2018-09-02T20:13:23.415Z,17.80
2018-09-02T20:15:52.902Z,24.30
2018-09-02T20:18:24.446Z,19.83
2018-09-02T20:20:53.982Z,17.83
2018-09-02T20:23:23.583Z,18.97
2018-09-02T20:26:01.211Z,20.37
2018-09-02T20:28:30.927Z,20.90
2018-09-02T20:31:04.522Z,18.80
2018-09-02T20:33:44.329Z,18.80
2018-09-02T20:36:14.846Z,20.23
2018-09-02T20:38:44.694Z,18.93
2018-09-02T20:41:16.574Z,18.77
2018-09-02T20:43:46.482Z,17.03
2018-09-02T20:46:20.445Z,18.70
2018-09-02T20:48:50.083Z,17.00
2018-09-02T20:51:19.665Z,18.93
2018-09-02T20:53:49.386Z,17.90
2018-09-02T20:56:24.614Z,18.67
2018-09-02T20:58:57.399Z,22.17
2018-09-02T21:01:27.119Z,20.00
2018-09-02T21:04:00.011Z,21.30
2018-09-02T21:06:33.363Z,21.60
2018-09-02T21:09:03.091Z,22.07
2018-09-02T21:11:34.955Z,23.97
2018-09-02T21:14:04.676Z,23.30
2018-09-02T21:16:35.319Z,23.27
2018-09-02T21:19:06.430Z,24.47
2018-09-02T21:21:42.110Z,24.37
2018-09-02T21:24:11.763Z,23.27
2018-09-02T21:26:42.654Z,24.00
2018-09-02T21:29:17.267Z,24.80
2018-09-02T21:31:51.736Z,21.30
2018-09-02T21:34:24.679Z,24.50
2018-09-02T21:36:56.386Z,22.87
2018-09-02T21:39:32.998Z,26.13
2018-09-02T21:42:06.782Z,24.83
2018-09-02T21:44:38.422Z,26.17
2018-09-02T21:47:13.222Z,24.00
2018-09-02T21:49:44.470Z,23.97
2018-09-02T21:52:15.430Z,26.20
2018-09-02T21:54:45.143Z,22.97
2018-09-02T21:57:24.543Z,23.03
2018-09-02T21:59:55.280Z,24.43
2018-09-02T22:02:27.111Z,24.93
2018-09-02T22:04:56.938Z,22.90
2018-09-02T22:07:27.363Z,26.03
2018-09-02T22:09:58.083Z,25.10
2018-09-02T22:12:28.686Z,24.17
2018-09-02T22:14:59.607Z,23.33
2018-09-02T22:17:29.191Z,22.50
2018-09-02T22:19:58.791Z,24.53
2018-09-02T22:22:28.383Z,23.30
2018-09-02T22:24:58.107Z,24.20
2018-09-02T22:27:27.971Z,22.70
2018-09-02T22:30:02.578Z,24.50
2018-09-02T22:32:36.902Z,23.93
2018-09-02T22:35:07.824Z,23.43
2018-09-02T22:37:43.138Z,22.50
2018-09-02T22:43:07.454Z,21.90
2018-09-02T22:45:50.713Z,24.47
2018-09-02T22:48:20.532Z,22.60
2018-09-02T22:50:58.311Z,25.93
2018-09-02T22:53:29.143Z,23.80
2018-09-02T22:56:04.907Z,23.53
2018-09-02T22:58:35.491Z,23.37
2018-09-02T23:01:07.111Z,25.50
2018-09-02T23:03:46.314Z,26.27
2018-09-02T23:06:23.064Z,24.20
2018-09-02T23:08:58.621Z,24.17
2018-09-02T23:11:31.351Z,26.93
2018-09-02T23:14:06.326Z,25.67
2018-09-02T23:16:40.422Z,26.70
2018-09-02T23:19:20.425Z,26.73
2018-09-02T23:21:56.799Z,25.90
2018-09-02T23:24:30.070Z,26.30
2018-09-02T23:30:05.303Z,26.10
2018-09-02T23:32:36.246Z,29.30
2018-09-02T23:35:06.546Z,26.10
2018-09-02T23:37:36.174Z,27.53
2018-09-02T23:42:59.914Z,27.87
2018-09-02T23:45:35.780Z,29.20
2018-09-02T23:48:10.847Z,30.67
2018-09-02T23:50:44.526Z,26.13
2018-09-02T23:56:12.698Z,30.90
2018-09-02T23:59:05.666Z,26.17
